sensor_id;sensor_type;location;lat;lon;timestamp;pressure;altitude;pressure_sealevel;temperature;humidity
61805;BME280;47725;47.912;7.356;2023-12-29T00:02:24;99485.67;;;13.66;54.13
61805;BME280;47725;47.912;7.356;2023-12-29T00:06:24;99484.16;;;13.67;54.26
61805;BME280;47725;47.912;7.356;2023-12-29T00:10:24;99480.56;;;13.70;54.05
61805;BME280;47725;47.912;7.356;2023-12-29T00:14:24;99478.96;;;13.72;54.27
61805;BME280;47725;47.912;7.356;2023-12-29T00:18:24;99477.89;;;13.75;54.24
61805;BME280;47725;47.912;7.356;2023-12-29T00:22:24;99475.49;;;13.77;54.23
61805;BME280;47725;47.912;7.356;2023-12-29T00:26:24;99472.50;;;13.81;53.95
61805;BME280;47725;47.912;7.356;2023-12-29T00:30:24;99469.84;;;13.83;54.25
61805;BME280;47725;47.912;7.356;2023-12-29T00:34:24;99467.85;;;13.85;54.48
61805;BME280;47725;47.912;7.356;2023-12-29T00:38:25;99465.36;;;13.86;54.53
61805;BME280;47725;47.912;7.356;2023-12-29T00:42:24;99462.70;;;13.87;54.66
61805;BME280;47725;47.912;7.356;2023-12-29T00:46:24;99460.83;;;13.88;54.69
61805;BME280;47725;47.912;7.356;2023-12-29T00:50:24;99458.65;;;13.88;55.00
61805;BME280;47725;47.912;7.356;2023-12-29T00:54:24;99454.42;;;13.90;54.64
61805;BME280;47725;47.912;7.356;2023-12-29T00:58:24;99451.22;;;13.91;54.75
61805;BME280;47725;47.912;7.356;2023-12-29T01:02:24;99451.26;;;13.94;54.25
61805;BME280;47725;47.912;7.356;2023-12-29T01:06:24;99451.22;;;13.95;54.60
61805;BME280;47725;47.912;7.356;2023-12-29T01:10:24;99452.92;;;13.90;55.44
61805;BME280;47725;47.912;7.356;2023-12-29T01:14:24;99452.78;;;13.86;55.50
61805;BME280;47725;47.912;7.356;2023-12-29T01:18:25;99450.66;;;13.85;55.46
61805;BME280;47725;47.912;7.356;2023-12-29T01:22:24;99446.09;;;13.83;55.65
61805;BME280;47725;47.912;7.356;2023-12-29T01:26:24;99441.89;;;13.82;55.48
61805;BME280;47725;47.912;7.356;2023-12-29T01:30:24;99438.62;;;13.81;55.75
61805;BME280;47725;47.912;7.356;2023-12-29T01:34:24;99435.39;;;13.82;55.65
61805;BME280;47725;47.912;7.356;2023-12-29T01:38:24;99434.45;;;13.82;55.94
61805;BME280;47725;47.912;7.356;2023-12-29T01:42:24;99433.51;;;13.83;55.59
61805;BME280;47725;47.912;7.356;2023-12-29T01:46:28;99431.58;;;13.87;55.43
61805;BME280;47725;47.912;7.356;2023-12-29T01:50:24;99432.84;;;13.88;55.55
61805;BME280;47725;47.912;7.356;2023-12-29T01:54:25;99431.50;;;13.88;55.77
61805;BME280;47725;47.912;7.356;2023-12-29T01:58:24;99427.24;;;13.90;55.46
61805;BME280;47725;47.912;7.356;2023-12-29T02:02:24;99423.89;;;13.92;55.42
61805;BME280;47725;47.912;7.356;2023-12-29T02:06:24;99422.07;;;13.92;55.62
61805;BME280;47725;47.912;7.356;2023-12-29T02:10:24;99420.08;;;13.91;55.62
61805;BME280;47725;47.912;7.356;2023-12-29T02:14:24;99419.95;;;13.92;55.44
61805;BME280;47725;47.912;7.356;2023-12-29T02:18:25;99420.06;;;13.93;55.29
61805;BME280;47725;47.912;7.356;2023-12-29T02:22:24;99418.69;;;13.94;55.51
61805;BME280;47725;47.912;7.356;2023-12-29T02:26:24;99417.19;;;13.97;55.44
61805;BME280;47725;47.912;7.356;2023-12-29T02:34:24;99414.90;;;13.98;55.96
61805;BME280;47725;47.912;7.356;2023-12-29T02:38:24;99413.56;;;13.98;56.00
61805;BME280;47725;47.912;7.356;2023-12-29T02:42:24;99412.77;;;13.96;56.20
61805;BME280;47725;47.912;7.356;2023-12-29T02:46:24;99410.91;;;13.94;56.22
61805;BME280;47725;47.912;7.356;2023-12-29T02:50:24;99411.43;;;13.94;56.20
61805;BME280;47725;47.912;7.356;2023-12-29T02:54:24;99412.14;;;13.96;56.03
61805;BME280;47725;47.912;7.356;2023-12-29T02:58:24;99412.36;;;13.98;56.33
61805;BME280;47725;47.912;7.356;2023-12-29T03:02:24;99412.08;;;14.00;56.71
61805;BME280;47725;47.912;7.356;2023-12-29T03:06:24;99412.47;;;14.00;56.79
61805;BME280;47725;47.912;7.356;2023-12-29T03:10:24;99414.42;;;13.97;57.20
61805;BME280;47725;47.912;7.356;2023-12-29T03:14:24;99413.62;;;13.93;57.23
61805;BME280;47725;47.912;7.356;2023-12-29T03:18:24;99413.45;;;13.90;57.70
61805;BME280;47725;47.912;7.356;2023-12-29T03:22:24;99412.59;;;13.88;57.41
61805;BME280;47725;47.912;7.356;2023-12-29T03:26:24;99410.92;;;13.87;57.47
61805;BME280;47725;47.912;7.356;2023-12-29T03:30:24;99407.24;;;13.86;57.68
61805;BME280;47725;47.912;7.356;2023-12-29T03:34:24;99404.94;;;13.83;57.93
61805;BME280;47725;47.912;7.356;2023-12-29T03:38:24;99402.98;;;13.83;57.72
61805;BME280;47725;47.912;7.356;2023-12-29T03:42:24;99400.22;;;13.81;57.90
61805;BME280;47725;47.912;7.356;2023-12-29T03:46:24;99398.47;;;13.79;57.82
61805;BME280;47725;47.912;7.356;2023-12-29T03:50:24;99397.39;;;13.78;57.79
61805;BME280;47725;47.912;7.356;2023-12-29T03:54:24;99396.72;;;13.77;57.69
61805;BME280;47725;47.912;7.356;2023-12-29T03:58:24;99396.59;;;13.76;57.74
61805;BME280;47725;47.912;7.356;2023-12-29T04:02:24;99395.94;;;13.76;57.72
61805;BME280;47725;47.912;7.356;2023-12-29T04:06:24;99394.25;;;13.74;57.88
61805;BME280;47725;47.912;7.356;2023-12-29T04:10:24;99392.52;;;13.74;57.66
61805;BME280;47725;47.912;7.356;2023-12-29T04:14:24;99392.46;;;13.73;57.58
61805;BME280;47725;47.912;7.356;2023-12-29T04:18:24;99393.63;;;13.75;57.43
61805;BME280;47725;47.912;7.356;2023-12-29T04:22:24;99393.00;;;13.76;57.33
61805;BME280;47725;47.912;7.356;2023-12-29T04:26:24;99392.35;;;13.76;57.44
61805;BME280;47725;47.912;7.356;2023-12-29T04:30:24;99391.19;;;13.79;57.03
61805;BME280;47725;47.912;7.356;2023-12-29T04:34:24;99391.96;;;13.80;57.02
61805;BME280;47725;47.912;7.356;2023-12-29T04:38:24;99391.47;;;13.80;57.18
61805;BME280;47725;47.912;7.356;2023-12-29T04:42:24;99392.46;;;13.80;57.14
61805;BME280;47725;47.912;7.356;2023-12-29T04:46:24;99392.28;;;13.80;57.13
61805;BME280;47725;47.912;7.356;2023-12-29T04:50:24;99393.29;;;13.82;56.98
61805;BME280;47725;47.912;7.356;2023-12-29T04:54:24;99395.01;;;13.84;56.78
61805;BME280;47725;47.912;7.356;2023-12-29T04:58:24;99397.02;;;13.86;56.95
61805;BME280;47725;47.912;7.356;2023-12-29T05:02:24;99397.03;;;13.89;56.86
61805;BME280;47725;47.912;7.356;2023-12-29T05:06:24;99396.17;;;13.91;56.84
61805;BME280;47725;47.912;7.356;2023-12-29T05:10:24;99395.28;;;13.92;56.81
61805;BME280;47725;47.912;7.356;2023-12-29T05:14:24;99390.42;;;13.94;56.85
61805;BME280;47725;47.912;7.356;2023-12-29T05:18:24;99387.55;;;13.95;56.83
61805;BME280;47725;47.912;7.356;2023-12-29T05:22:24;99386.42;;;13.97;56.75
61805;BME280;47725;47.912;7.356;2023-12-29T05:26:24;99386.88;;;13.98;56.83
61805;BME280;47725;47.912;7.356;2023-12-29T05:30:24;99386.38;;;13.98;56.90
61805;BME280;47725;47.912;7.356;2023-12-29T05:34:24;99385.82;;;13.99;56.77
61805;BME280;47725;47.912;7.356;2023-12-29T05:38:25;99385.58;;;14.00;56.82
61805;BME280;47725;47.912;7.356;2023-12-29T05:42:24;99387.20;;;14.01;56.81
61805;BME280;47725;47.912;7.356;2023-12-29T05:46:24;99388.47;;;14.03;57.05
61805;BME280;47725;47.912;7.356;2023-12-29T05:50:24;99388.89;;;14.04;56.94
61805;BME280;47725;47.912;7.356;2023-12-29T05:54:24;99388.14;;;14.04;57.31
61805;BME280;47725;47.912;7.356;2023-12-29T05:58:24;99386.95;;;14.04;57.24
61805;BME280;47725;47.912;7.356;2023-12-29T06:02:24;99384.08;;;14.05;57.37
61805;BME280;47725;47.912;7.356;2023-12-29T06:06:24;99382.25;;;14.04;57.59
61805;BME280;47725;47.912;7.356;2023-12-29T06:10:24;99381.25;;;14.02;57.55
61805;BME280;47725;47.912;7.356;2023-12-29T06:14:24;99382.47;;;14.01;57.85
61805;BME280;47725;47.912;7.356;2023-12-29T06:18:24;99384.70;;;14.00;57.83
61805;BME280;47725;47.912;7.356;2023-12-29T06:22:25;99385.67;;;14.00;57.74
61805;BME280;47725;47.912;7.356;2023-12-29T06:26:24;99387.97;;;14.04;57.51
61805;BME280;47725;47.912;7.356;2023-12-29T06:30:24;99390.59;;;14.07;57.55
61805;BME280;47725;47.912;7.356;2023-12-29T06:34:24;99391.65;;;14.10;57.56
61805;BME280;47725;47.912;7.356;2023-12-29T06:38:24;99392.52;;;14.13;57.35
61805;BME280;47725;47.912;7.356;2023-12-29T06:42:24;99391.82;;;14.14;57.43
61805;BME280;47725;47.912;7.356;2023-12-29T06:46:24;99391.53;;;14.16;57.23
61805;BME280;47725;47.912;7.356;2023-12-29T06:50:24;99392.96;;;14.18;57.10
61805;BME280;47725;47.912;7.356;2023-12-29T06:54:24;99392.63;;;14.20;57.02
61805;BME280;47725;47.912;7.356;2023-12-29T06:58:24;99393.62;;;14.22;56.86
61805;BME280;47725;47.912;7.356;2023-12-29T07:02:24;99392.74;;;14.22;56.96
61805;BME280;47725;47.912;7.356;2023-12-29T07:06:24;99390.06;;;14.21;57.06
61805;BME280;47725;47.912;7.356;2023-12-29T07:10:24;99389.40;;;14.21;56.94
61805;BME280;47725;47.912;7.356;2023-12-29T07:14:24;99389.65;;;14.22;56.84
61805;BME280;47725;47.912;7.356;2023-12-29T07:18:24;99388.76;;;14.23;56.86
61805;BME280;47725;47.912;7.356;2023-12-29T07:22:24;99390.19;;;14.22;56.93
61805;BME280;47725;47.912;7.356;2023-12-29T07:26:24;99391.74;;;14.20;57.02
61805;BME280;47725;47.912;7.356;2023-12-29T07:30:24;99392.94;;;14.17;57.19
61805;BME280;47725;47.912;7.356;2023-12-29T07:34:24;99394.55;;;14.16;56.98
61805;BME280;47725;47.912;7.356;2023-12-29T07:38:24;99395.90;;;14.17;56.81
61805;BME280;47725;47.912;7.356;2023-12-29T07:42:24;99396.17;;;14.18;56.73
61805;BME280;47725;47.912;7.356;2023-12-29T07:46:24;99397.52;;;14.20;56.68
61805;BME280;47725;47.912;7.356;2023-12-29T07:50:24;99398.11;;;14.20;56.78
61805;BME280;47725;47.912;7.356;2023-12-29T07:54:24;99399.60;;;14.21;56.75
61805;BME280;47725;47.912;7.356;2023-12-29T07:58:24;99401.93;;;14.24;56.53
61805;BME280;47725;47.912;7.356;2023-12-29T08:02:24;99402.87;;;14.25;56.59
61805;BME280;47725;47.912;7.356;2023-12-29T08:06:24;99402.47;;;14.26;56.61
61805;BME280;47725;47.912;7.356;2023-12-29T08:10:24;99403.48;;;14.27;56.70
61805;BME280;47725;47.912;7.356;2023-12-29T08:14:24;99405.06;;;14.28;56.62
61805;BME280;47725;47.912;7.356;2023-12-29T08:18:24;99408.29;;;14.30;56.61
61805;BME280;47725;47.912;7.356;2023-12-29T08:22:24;99410.82;;;14.33;56.39
61805;BME280;47725;47.912;7.356;2023-12-29T08:26:24;99413.17;;;14.36;56.45
61805;BME280;47725;47.912;7.356;2023-12-29T08:30:24;99415.66;;;14.40;56.24
61805;BME280;47725;47.912;7.356;2023-12-29T08:34:24;99417.52;;;14.44;56.30
61805;BME280;47725;47.912;7.356;2023-12-29T08:38:24;99419.13;;;14.47;56.28
61805;BME280;47725;47.912;7.356;2023-12-29T08:42:24;99421.20;;;14.50;56.44
61805;BME280;47725;47.912;7.356;2023-12-29T08:46:24;99423.46;;;14.54;56.36
61805;BME280;47725;47.912;7.356;2023-12-29T08:50:24;99426.90;;;14.58;56.12
61805;BME280;47725;47.912;7.356;2023-12-29T08:54:24;99426.92;;;14.64;56.00
61805;BME280;47725;47.912;7.356;2023-12-29T08:58:24;99428.89;;;14.71;55.69
61805;BME280;47725;47.912;7.356;2023-12-29T09:02:24;99429.72;;;14.76;55.66
61805;BME280;47725;47.912;7.356;2023-12-29T09:06:24;99432.54;;;14.82;55.38
61805;BME280;47725;47.912;7.356;2023-12-29T09:10:27;99434.09;;;14.88;55.58
61805;BME280;47725;47.912;7.356;2023-12-29T09:14:24;99437.23;;;14.93;55.53
61805;BME280;47725;47.912;7.356;2023-12-29T09:18:24;99439.47;;;14.98;55.54
61805;BME280;47725;47.912;7.356;2023-12-29T09:22:24;99442.33;;;15.04;55.69
61805;BME280;47725;47.912;7.356;2023-12-29T09:26:24;99443.03;;;15.09;55.65
61805;BME280;47725;47.912;7.356;2023-12-29T09:30:24;99442.71;;;15.13;55.77
61805;BME280;47725;47.912;7.356;2023-12-29T09:34:24;99440.86;;;15.22;55.66
61805;BME280;47725;47.912;7.356;2023-12-29T09:38:24;99437.58;;;15.30;55.50
61805;BME280;47725;47.912;7.356;2023-12-29T09:42:24;99434.74;;;15.37;55.89
61805;BME280;47725;47.912;7.356;2023-12-29T09:46:24;99430.47;;;15.49;55.19
61805;BME280;47725;47.912;7.356;2023-12-29T09:50:24;99427.68;;;15.62;54.76
61805;BME280;47725;47.912;7.356;2023-12-29T09:54:24;99424.57;;;15.74;54.57
61805;BME280;47725;47.912;7.356;2023-12-29T09:58:24;99423.26;;;15.88;53.66
61805;BME280;47725;47.912;7.356;2023-12-29T10:02:24;99421.81;;;15.99;53.95
61805;BME280;47725;47.912;7.356;2023-12-29T10:06:24;99419.30;;;16.14;53.58
61805;BME280;47725;47.912;7.356;2023-12-29T10:10:24;99417.39;;;16.32;52.85
61805;BME280;47725;47.912;7.356;2023-12-29T10:14:33;99414.34;;;16.52;52.28
61805;BME280;47725;47.912;7.356;2023-12-29T10:18:37;99411.86;;;16.70;51.27
61805;BME280;47725;47.912;7.356;2023-12-29T10:22:46;99411.33;;;16.88;50.87
61805;BME280;47725;47.912;7.356;2023-12-29T10:26:24;99409.19;;;17.02;50.92
61805;BME280;47725;47.912;7.356;2023-12-29T10:30:24;99407.87;;;17.17;50.27
61805;BME280;47725;47.912;7.356;2023-12-29T10:34:24;99408.37;;;17.31;49.92
61805;BME280;47725;47.912;7.356;2023-12-29T10:38:24;99406.23;;;17.44;49.62
61805;BME280;47725;47.912;7.356;2023-12-29T10:42:24;99404.74;;;17.58;49.01
61805;BME280;47725;47.912;7.356;2023-12-29T10:46:24;99401.09;;;17.69;48.03
61805;BME280;47725;47.912;7.356;2023-12-29T10:50:24;99396.28;;;17.77;48.92
61805;BME280;47725;47.912;7.356;2023-12-29T10:54:24;99391.22;;;17.87;48.27
61805;BME280;47725;47.912;7.356;2023-12-29T10:58:24;99386.25;;;17.97;46.96
61805;BME280;47725;47.912;7.356;2023-12-29T11:02:24;99381.47;;;18.05;47.67
61805;BME280;47725;47.912;7.356;2023-12-29T11:06:24;99377.29;;;18.10;47.16
61805;BME280;47725;47.912;7.356;2023-12-29T11:10:24;99373.69;;;18.16;46.27
61805;BME280;47725;47.912;7.356;2023-12-29T11:14:24;99371.37;;;18.20;45.64
61805;BME280;47725;47.912;7.356;2023-12-29T11:18:24;99368.76;;;18.22;44.51
61805;BME280;47725;47.912;7.356;2023-12-29T11:22:24;99365.12;;;18.20;43.17
61805;BME280;47725;47.912;7.356;2023-12-29T11:26:24;99360.41;;;18.17;43.54
61805;BME280;47725;47.912;7.356;2023-12-29T11:30:24;99357.44;;;18.13;43.51
61805;BME280;47725;47.912;7.356;2023-12-29T11:34:30;99354.08;;;18.09;43.69
61805;BME280;47725;47.912;7.356;2023-12-29T11:42:28;99347.48;;;18.02;43.17
61805;BME280;47725;47.912;7.356;2023-12-29T11:46:32;99342.08;;;17.99;43.12
61805;BME280;47725;47.912;7.356;2023-12-29T11:50:27;99338.40;;;17.99;42.31
61805;BME280;47725;47.912;7.356;2023-12-29T11:54:24;99335.11;;;17.99;41.97
61805;BME280;47725;47.912;7.356;2023-12-29T11:58:24;99330.55;;;18.00;41.72
61805;BME280;47725;47.912;7.356;2023-12-29T12:02:27;99326.25;;;17.97;41.37
61805;BME280;47725;47.912;7.356;2023-12-29T12:06:38;99323.25;;;17.95;41.91
61805;BME280;47725;47.912;7.356;2023-12-29T12:18:23;99315.56;;;17.85;41.14
61805;BME280;47725;47.912;7.356;2023-12-29T12:22:24;99313.07;;;17.82;41.86
61805;BME280;47725;47.912;7.356;2023-12-29T12:26:23;99310.08;;;17.83;41.28
61805;BME280;47725;47.912;7.356;2023-12-29T12:30:23;99306.80;;;17.86;40.94
61805;BME280;47725;47.912;7.356;2023-12-29T12:34:23;99303.22;;;17.89;40.86
61805;BME280;47725;47.912;7.356;2023-12-29T12:38:23;99299.86;;;17.89;41.17
61805;BME280;47725;47.912;7.356;2023-12-29T12:42:23;99297.50;;;17.90;41.83
61805;BME280;47725;47.912;7.356;2023-12-29T12:46:23;99294.05;;;17.92;41.56
61805;BME280;47725;47.912;7.356;2023-12-29T12:50:23;99290.78;;;17.94;42.16
61805;BME280;47725;47.912;7.356;2023-12-29T12:54:23;99284.83;;;17.93;42.01
61805;BME280;47725;47.912;7.356;2023-12-29T12:58:23;99280.06;;;17.93;41.85
61805;BME280;47725;47.912;7.356;2023-12-29T13:02:23;99275.97;;;17.95;41.69
61805;BME280;47725;47.912;7.356;2023-12-29T13:06:23;99272.30;;;17.99;41.67
61805;BME280;47725;47.912;7.356;2023-12-29T13:10:23;99269.17;;;18.05;41.61
61805;BME280;47725;47.912;7.356;2023-12-29T13:14:23;99266.46;;;18.09;41.68
61805;BME280;47725;47.912;7.356;2023-12-29T13:18:29;99265.42;;;18.12;41.93
61805;BME280;47725;47.912;7.356;2023-12-29T13:22:23;99265.00;;;18.16;41.88
61805;BME280;47725;47.912;7.356;2023-12-29T13:26:23;99264.14;;;18.19;42.09
61805;BME280;47725;47.912;7.356;2023-12-29T13:30:23;99263.37;;;18.17;42.72
61805;BME280;47725;47.912;7.356;2023-12-29T13:34:27;99263.53;;;18.14;42.85
61805;BME280;47725;47.912;7.356;2023-12-29T13:38:28;99264.67;;;18.13;43.00
61805;BME280;47725;47.912;7.356;2023-12-29T13:42:24;99265.60;;;18.14;43.28
61805;BME280;47725;47.912;7.356;2023-12-29T13:46:23;99266.85;;;18.16;43.52
61805;BME280;47725;47.912;7.356;2023-12-29T13:50:23;99266.50;;;18.14;43.78
61805;BME280;47725;47.912;7.356;2023-12-29T13:54:23;99268.19;;;18.12;43.92
61805;BME280;47725;47.912;7.356;2023-12-29T13:58:23;99267.86;;;18.09;44.03
61805;BME280;47725;47.912;7.356;2023-12-29T14:02:27;99269.89;;;18.06;44.07
61805;BME280;47725;47.912;7.356;2023-12-29T14:06:29;99270.61;;;18.01;44.18
61805;BME280;47725;47.912;7.356;2023-12-29T14:10:23;99271.81;;;17.97;44.30
61805;BME280;47725;47.912;7.356;2023-12-29T14:14:24;99270.47;;;17.94;44.22
61805;BME280;47725;47.912;7.356;2023-12-29T14:22:23;99266.55;;;17.98;43.61
61805;BME280;47725;47.912;7.356;2023-12-29T14:26:23;99264.32;;;17.98;43.58
61805;BME280;47725;47.912;7.356;2023-12-29T14:30:23;99263.50;;;17.96;43.87
61805;BME280;47725;47.912;7.356;2023-12-29T14:34:23;99263.83;;;17.94;44.01
61805;BME280;47725;47.912;7.356;2023-12-29T14:38:23;99263.78;;;17.89;44.27
61805;BME280;47725;47.912;7.356;2023-12-29T14:42:23;99264.04;;;17.85;44.26
61805;BME280;47725;47.912;7.356;2023-12-29T14:46:23;99265.59;;;17.81;44.52
61805;BME280;47725;47.912;7.356;2023-12-29T14:50:23;99265.56;;;17.76;44.73
61805;BME280;47725;47.912;7.356;2023-12-29T14:54:23;99268.13;;;17.72;44.53
61805;BME280;47725;47.912;7.356;2023-12-29T14:58:23;99268.67;;;17.67;44.30
61805;BME280;47725;47.912;7.356;2023-12-29T15:02:23;99270.37;;;17.61;44.62
61805;BME280;47725;47.912;7.356;2023-12-29T15:06:23;99271.62;;;17.56;44.75
61805;BME280;47725;47.912;7.356;2023-12-29T15:10:23;99273.74;;;17.53;44.85
61805;BME280;47725;47.912;7.356;2023-12-29T15:14:23;99275.30;;;17.49;44.74
61805;BME280;47725;47.912;7.356;2023-12-29T15:18:23;99277.64;;;17.46;45.06
61805;BME280;47725;47.912;7.356;2023-12-29T15:22:23;99279.99;;;17.41;45.39
61805;BME280;47725;47.912;7.356;2023-12-29T15:26:23;99281.34;;;17.37;45.55
61805;BME280;47725;47.912;7.356;2023-12-29T15:30:23;99283.67;;;17.32;45.70
61805;BME280;47725;47.912;7.356;2023-12-29T15:34:23;99285.44;;;17.29;45.65
61805;BME280;47725;47.912;7.356;2023-12-29T15:38:23;99287.27;;;17.24;45.81
61805;BME280;47725;47.912;7.356;2023-12-29T15:42:23;99287.38;;;17.19;45.81
61805;BME280;47725;47.912;7.356;2023-12-29T15:46:23;99287.26;;;17.16;45.67
61805;BME280;47725;47.912;7.356;2023-12-29T15:50:23;99287.67;;;17.13;45.61
61805;BME280;47725;47.912;7.356;2023-12-29T15:54:23;99287.17;;;17.12;45.50
61805;BME280;47725;47.912;7.356;2023-12-29T15:58:23;99286.30;;;17.10;45.67
61805;BME280;47725;47.912;7.356;2023-12-29T16:02:23;99284.24;;;17.05;45.86
61805;BME280;47725;47.912;7.356;2023-12-29T16:06:24;99282.81;;;17.02;45.65
61805;BME280;47725;47.912;7.356;2023-12-29T16:10:23;99283.08;;;16.97;45.75
61805;BME280;47725;47.912;7.356;2023-12-29T16:14:23;99283.92;;;16.92;45.71
61805;BME280;47725;47.912;7.356;2023-12-29T16:18:23;99282.57;;;16.88;45.67
61805;BME280;47725;47.912;7.356;2023-12-29T16:22:23;99277.25;;;16.85;45.45
61805;BME280;47725;47.912;7.356;2023-12-29T16:26:23;99275.23;;;16.81;45.47
61805;BME280;47725;47.912;7.356;2023-12-29T16:30:23;99275.61;;;16.78;45.36
61805;BME280;47725;47.912;7.356;2023-12-29T16:34:23;99276.31;;;16.76;45.17
61805;BME280;47725;47.912;7.356;2023-12-29T16:38:23;99276.06;;;16.72;45.53
61805;BME280;47725;47.912;7.356;2023-12-29T16:42:23;99275.17;;;16.69;45.60
61805;BME280;47725;47.912;7.356;2023-12-29T16:46:23;99275.12;;;16.65;45.76
61805;BME280;47725;47.912;7.356;2023-12-29T16:50:23;99276.72;;;16.62;45.55
61805;BME280;47725;47.912;7.356;2023-12-29T16:54:23;99277.44;;;16.59;45.61
61805;BME280;47725;47.912;7.356;2023-12-29T16:58:23;99277.63;;;16.56;45.88
61805;BME280;47725;47.912;7.356;2023-12-29T17:02:23;99278.59;;;16.52;45.81
61805;BME280;47725;47.912;7.356;2023-12-29T17:06:23;99277.29;;;16.46;45.23
61805;BME280;47725;47.912;7.356;2023-12-29T17:10:23;99276.39;;;16.42;44.83
61805;BME280;47725;47.912;7.356;2023-12-29T17:14:23;99276.05;;;16.40;44.47
61805;BME280;47725;47.912;7.356;2023-12-29T17:18:23;99278.81;;;16.37;44.28
61805;BME280;47725;47.912;7.356;2023-12-29T17:22:23;99284.23;;;16.33;44.63
61805;BME280;47725;47.912;7.356;2023-12-29T17:26:23;99288.47;;;16.29;45.25
61805;BME280;47725;47.912;7.356;2023-12-29T17:30:23;99291.06;;;16.27;45.33
61805;BME280;47725;47.912;7.356;2023-12-29T17:34:23;99293.81;;;16.26;45.40
61805;BME280;47725;47.912;7.356;2023-12-29T17:38:23;99297.13;;;16.22;45.66
61805;BME280;47725;47.912;7.356;2023-12-29T17:42:23;99299.55;;;16.18;45.83
61805;BME280;47725;47.912;7.356;2023-12-29T17:46:23;99300.05;;;16.15;45.93
61805;BME280;47725;47.912;7.356;2023-12-29T17:50:23;99300.48;;;16.10;46.00
61805;BME280;47725;47.912;7.356;2023-12-29T17:54:23;99301.90;;;16.06;46.26
61805;BME280;47725;47.912;7.356;2023-12-29T17:58:23;99301.14;;;16.00;46.42
61805;BME280;47725;47.912;7.356;2023-12-29T18:02:23;99301.81;;;15.96;46.56
61805;BME280;47725;47.912;7.356;2023-12-29T18:06:23;99304.05;;;15.91;46.48
61805;BME280;47725;47.912;7.356;2023-12-29T18:10:23;99306.75;;;15.88;46.49
61805;BME280;47725;47.912;7.356;2023-12-29T18:14:23;99310.08;;;15.85;46.52
61805;BME280;47725;47.912;7.356;2023-12-29T18:18:23;99313.12;;;15.81;46.67
61805;BME280;47725;47.912;7.356;2023-12-29T18:22:23;99313.86;;;15.76;46.74
61805;BME280;47725;47.912;7.356;2023-12-29T18:26:23;99315.48;;;15.71;46.92
61805;BME280;47725;47.912;7.356;2023-12-29T18:30:23;99316.55;;;15.65;47.22
61805;BME280;47725;47.912;7.356;2023-12-29T18:34:23;99317.79;;;15.61;47.33
61805;BME280;47725;47.912;7.356;2023-12-29T18:38:23;99320.48;;;15.56;47.45
61805;BME280;47725;47.912;7.356;2023-12-29T18:42:23;99322.44;;;15.50;47.97
61805;BME280;47725;47.912;7.356;2023-12-29T18:46:23;99324.39;;;15.46;47.58
61805;BME280;47725;47.912;7.356;2023-12-29T18:50:23;99325.67;;;15.44;47.63
61805;BME280;47725;47.912;7.356;2023-12-29T18:54:26;99326.04;;;15.41;47.79
61805;BME280;47725;47.912;7.356;2023-12-29T18:58:23;99326.64;;;15.38;48.04
61805;BME280;47725;47.912;7.356;2023-12-29T19:02:23;99327.34;;;15.35;47.96
61805;BME280;47725;47.912;7.356;2023-12-29T19:06:23;99327.83;;;15.33;48.23
61805;BME280;47725;47.912;7.356;2023-12-29T19:10:23;99328.22;;;15.30;48.24
61805;BME280;47725;47.912;7.356;2023-12-29T19:14:23;99331.13;;;15.28;48.44
61805;BME280;47725;47.912;7.356;2023-12-29T19:18:23;99333.94;;;15.26;48.52
61805;BME280;47725;47.912;7.356;2023-12-29T19:22:23;99335.52;;;15.26;48.46
61805;BME280;47725;47.912;7.356;2023-12-29T19:26:23;99336.00;;;15.26;48.46
61805;BME280;47725;47.912;7.356;2023-12-29T19:30:23;99336.06;;;15.26;48.61
61805;BME280;47725;47.912;7.356;2023-12-29T19:34:23;99334.20;;;15.26;48.99
61805;BME280;47725;47.912;7.356;2023-12-29T19:38:23;99333.44;;;15.24;49.35
61805;BME280;47725;47.912;7.356;2023-12-29T19:42:23;99331.83;;;15.22;49.36
61805;BME280;47725;47.912;7.356;2023-12-29T19:46:23;99329.32;;;15.19;49.88
61805;BME280;47725;47.912;7.356;2023-12-29T19:50:23;99329.10;;;15.16;49.54
61805;BME280;47725;47.912;7.356;2023-12-29T19:54:23;99328.88;;;15.13;49.67
61805;BME280;47725;47.912;7.356;2023-12-29T19:58:23;99328.58;;;15.11;49.67
61805;BME280;47725;47.912;7.356;2023-12-29T20:02:23;99329.21;;;15.08;49.91
61805;BME280;47725;47.912;7.356;2023-12-29T20:06:23;99331.19;;;15.06;49.54
61805;BME280;47725;47.912;7.356;2023-12-29T20:10:23;99334.19;;;15.04;49.81
61805;BME280;47725;47.912;7.356;2023-12-29T20:14:23;99336.61;;;15.02;49.53
61805;BME280;47725;47.912;7.356;2023-12-29T20:18:23;99339.01;;;15.00;49.85
61805;BME280;47725;47.912;7.356;2023-12-29T20:22:23;99340.03;;;14.98;49.63
61805;BME280;47725;47.912;7.356;2023-12-29T20:26:24;99341.25;;;14.94;49.63
61805;BME280;47725;47.912;7.356;2023-12-29T20:30:23;99341.78;;;14.91;49.77
61805;BME280;47725;47.912;7.356;2023-12-29T20:34:23;99340.43;;;14.89;49.91
61805;BME280;47725;47.912;7.356;2023-12-29T20:38:23;99338.39;;;14.84;50.17
61805;BME280;47725;47.912;7.356;2023-12-29T20:42:23;99336.41;;;14.83;50.10
61805;BME280;47725;47.912;7.356;2023-12-29T20:46:23;99334.50;;;14.83;49.89
61805;BME280;47725;47.912;7.356;2023-12-29T20:50:23;99332.64;;;14.84;50.50
61805;BME280;47725;47.912;7.356;2023-12-29T20:54:23;99333.03;;;14.86;50.35
61805;BME280;47725;47.912;7.356;2023-12-29T20:58:23;99332.67;;;14.89;49.98
61805;BME280;47725;47.912;7.356;2023-12-29T21:02:23;99331.62;;;14.86;50.69
61805;BME280;47725;47.912;7.356;2023-12-29T21:06:23;99332.00;;;14.82;50.88
61805;BME280;47725;47.912;7.356;2023-12-29T21:10:23;99330.06;;;14.78;50.96
61805;BME280;47725;47.912;7.356;2023-12-29T21:14:23;99325.90;;;14.74;50.94
61805;BME280;47725;47.912;7.356;2023-12-29T21:18:23;99320.62;;;14.71;51.25
61805;BME280;47725;47.912;7.356;2023-12-29T21:22:23;99317.94;;;14.68;51.78
61805;BME280;47725;47.912;7.356;2023-12-29T21:26:23;99315.22;;;14.65;52.04
61805;BME280;47725;47.912;7.356;2023-12-29T21:30:23;99312.47;;;14.62;52.46